臺東航空站 - ATIS

METAR RCFN 011200Z 01006KT 300V060 9999 FEW030 BKN060 22/17 Q1020 NOSIG RMK A3013=

站台狀態:Online
最後更新:2022-12-02 00:30:02